AirportWindKnotsOPERATIONSMETAR
KBWI310928(D) 33L(A) 33R(A/D)-PROPS KBWI 170054Z 31009KT 10SM SCT017 BKN024 OVC033 04/03 A2989 RMK AO2 SLP123 T00440033
KDCA34091 (D/A) 33 (D/A)-RJ/PROPS KDCA 170130Z 34009KT 10SM SCT020 OVC043 07/03 A2992 RMK AO2 T00670028
KIAD340930 (D) 1L/1C/1R (A) KIAD 170122Z 34009KT 10SM BKN028 OVC035 05/03 A2993 RMK AO2 T00500033 $
KRDU280723L/23R (D/A) KRDU 170051Z 28007KT 10SM FEW050 11/07 A2995 RMK AO2 SLP142 T01110067 $



The information contained on all pages of this website is to be used for flight simulation purposes only on the VATSIM network. It is not intended nor should it be used for real world navigation.This site is not affiliated with the FAA, the actual Washington Center or any governing aviation body. All content contained herein is approved only for use on the VATSIM network. ©2016 Virtual Washington ARTCC -- Source Code © 2016-2017 R. Rump, R. Murphy, W. Guisbond. Some scripts provided by VATEUD and VATUSA. Logo icons created by the Noun Project, CC 17.
By using this website you agree to all VATSIM Privacy Regulations as can be found on https://www.vatsim.net/documents/privacy-policy. This website uses cookies to track your login information whichonly includes your VATSIM ID and ATC rating.